createdAt,value
2018-01-20T00:00:48.048Z,0
2018-01-20T00:01:47.522Z,0
2018-01-20T00:02:48.069Z,0
2018-01-20T00:03:47.825Z,0
2018-01-20T00:04:47.832Z,0
2018-01-20T00:05:47.556Z,0
2018-01-20T00:06:47.823Z,0
2018-01-20T00:07:48.129Z,0
2018-01-20T00:08:48.136Z,0
2018-01-20T00:09:47.831Z,0
2018-01-20T00:10:47.643Z,0
2018-01-20T00:11:47.345Z,0
2018-01-20T00:12:47.919Z,0
2018-01-20T00:13:47.914Z,0
2018-01-20T00:14:47.927Z,0
2018-01-20T00:15:47.633Z,0
2018-01-20T00:16:47.915Z,0
2018-01-20T00:17:48.011Z,0
2018-01-20T00:18:47.942Z,0
2018-01-20T00:19:47.985Z,0
2018-01-20T00:20:47.669Z,0
2018-01-20T00:21:47.457Z,0
2018-01-20T00:22:47.770Z,0
2018-01-20T00:23:48.071Z,0
2018-01-20T00:24:47.500Z,0
2018-01-20T00:25:47.454Z,0
2018-01-20T00:26:47.501Z,0
2018-01-20T00:27:47.775Z,0
2018-01-20T00:28:48.375Z,0
2018-01-20T00:29:47.828Z,0
2018-01-20T00:30:47.830Z,0
2018-01-20T00:31:47.807Z,0
2018-01-20T00:32:48.133Z,0
2018-01-20T00:33:47.846Z,0
2018-01-20T00:34:47.860Z,0
2018-01-20T00:35:48.495Z,0
2018-01-20T00:36:47.839Z,0
2018-01-20T00:37:48.231Z,0
2018-01-20T00:38:48.143Z,0
2018-01-20T00:39:48.500Z,0
2018-01-20T00:40:47.945Z,0
2018-01-20T00:41:48.558Z,0
2018-01-20T00:42:48.250Z,0
2018-01-20T00:43:47.914Z,0
2018-01-20T00:44:48.205Z,0
2018-01-20T00:45:48.574Z,0
2018-01-20T00:46:48.295Z,0
2018-01-20T00:47:47.742Z,0
2018-01-20T00:48:47.993Z,0
2018-01-20T00:49:48.369Z,0
2018-01-20T00:50:48.003Z,0
2018-01-20T00:51:48.597Z,0
2018-01-20T00:52:48.610Z,0
2018-01-20T00:53:48.417Z,0
2018-01-20T00:54:48.102Z,0
2018-01-20T00:55:48.069Z,0
2018-01-20T00:56:47.827Z,0
2018-01-20T00:57:48.395Z,0
2018-01-20T00:58:48.377Z,0
2018-01-20T00:59:48.665Z,0
2018-01-20T01:00:48.476Z,0
2018-01-20T01:01:48.401Z,0
2018-01-20T01:02:48.470Z,0
2018-01-20T01:03:48.449Z,0
2018-01-20T01:04:48.222Z,0
2018-01-20T01:05:48.210Z,0
2018-01-20T01:06:48.220Z,0
2018-01-20T01:07:48.511Z,0
2018-01-20T01:08:48.523Z,0
2018-01-20T01:09:48.254Z,0
2018-01-20T01:10:48.241Z,0
2018-01-20T01:11:48.546Z,0
2018-01-20T01:12:48.258Z,0
2018-01-20T01:13:48.019Z,0
2018-01-20T01:14:48.267Z,0
2018-01-20T01:15:48.294Z,0
2018-01-20T01:16:48.557Z,0
2018-01-20T01:17:48.652Z,0
2018-01-20T01:18:48.936Z,0
2018-01-20T01:19:48.899Z,0
2018-01-20T01:20:48.668Z,0
2018-01-20T01:21:48.092Z,0
2018-01-20T01:22:48.635Z,0
2018-01-20T01:23:48.408Z,0
2018-01-20T01:24:48.717Z,0
2018-01-20T01:25:48.450Z,0
2018-01-20T01:26:48.711Z,0
2018-01-20T01:27:48.688Z,0
2018-01-20T01:28:48.726Z,0
2018-01-20T01:29:48.466Z,0
2018-01-20T01:30:48.439Z,0
2018-01-20T01:31:48.471Z,0
2018-01-20T01:32:49.039Z,0
2018-01-20T01:33:49.027Z,0
2018-01-20T01:34:48.780Z,0
2018-01-20T01:35:48.518Z,0
2018-01-20T01:36:48.555Z,0
2018-01-20T01:37:48.792Z,0
2018-01-20T01:38:48.582Z,0
2018-01-20T01:39:48.593Z,0
2018-01-20T01:40:48.602Z,0
2018-01-20T01:41:48.834Z,0
2018-01-20T01:42:48.580Z,0
2018-01-20T01:43:49.261Z,0
2018-01-20T01:44:48.607Z,0
2018-01-20T01:45:48.903Z,0
2018-01-20T01:46:49.250Z,0
2018-01-20T01:47:48.336Z,0
2018-01-20T01:48:48.660Z,0
2018-01-20T01:49:48.937Z,0
2018-01-20T01:50:48.781Z,0
2018-01-20T01:51:48.942Z,0
2018-01-20T01:52:49.273Z,0
2018-01-20T01:53:48.727Z,0
2018-01-20T01:54:49.027Z,0
2018-01-20T01:55:49.369Z,0
2018-01-20T01:56:49.044Z,0
2018-01-20T01:57:48.732Z,0
2018-01-20T01:58:49.023Z,0
2018-01-20T01:59:49.318Z,0
2018-01-20T02:00:48.948Z,0
2018-01-20T02:01:48.833Z,0
2018-01-20T02:02:49.101Z,0
2018-01-20T02:03:49.006Z,0
2018-01-20T02:04:48.822Z,0
2018-01-20T02:05:49.159Z,0
2018-01-20T02:06:48.868Z,0
2018-01-20T02:07:49.469Z,0
2018-01-20T02:08:48.616Z,0
2018-01-20T02:09:50.056Z,0
2018-01-20T02:10:48.919Z,0
2018-01-20T02:11:49.482Z,0
2018-01-20T02:12:48.905Z,0
2018-01-20T02:13:48.909Z,0
2018-01-20T02:14:48.948Z,0
2018-01-20T02:15:49.518Z,0
2018-01-20T02:16:48.980Z,0
2018-01-20T02:17:49.255Z,0
2018-01-20T02:18:49.234Z,0
2018-01-20T02:19:49.644Z,0
2018-01-20T02:20:49.187Z,0
2018-01-20T02:21:49.307Z,0
2018-01-20T02:22:49.380Z,0
2018-01-20T02:23:49.320Z,0
2018-01-20T02:24:49.348Z,0
2018-01-20T02:25:49.119Z,0
2018-01-20T02:26:49.328Z,0
2018-01-20T02:27:49.065Z,0
2018-01-20T02:28:49.684Z,0
2018-01-20T02:29:49.089Z,0
2018-01-20T02:30:49.591Z,0
2018-01-20T02:31:49.407Z,0
2018-01-20T02:32:49.450Z,0
2018-01-20T02:33:49.410Z,0
2018-01-20T02:34:49.485Z,0
2018-01-20T02:35:49.222Z,0
2018-01-20T02:36:49.482Z,0
2018-01-20T02:37:49.235Z,0
2018-01-20T02:38:49.550Z,0
2018-01-20T02:39:49.512Z,0
2018-01-20T02:40:49.262Z,0
2018-01-20T02:41:49.824Z,0
2018-01-20T02:42:49.815Z,0
2018-01-20T02:43:49.547Z,0
2018-01-20T02:44:49.548Z,0
2018-01-20T02:45:49.558Z,0
2018-01-20T02:46:49.554Z,0
2018-01-20T02:47:49.616Z,0
2018-01-20T02:48:49.629Z,0
2018-01-20T02:49:49.880Z,0
2018-01-20T02:50:49.339Z,0
2018-01-20T02:51:49.660Z,0
2018-01-20T02:52:49.694Z,0
2018-01-20T02:53:49.756Z,0
2018-01-20T02:54:49.375Z,0
2018-01-20T02:55:49.767Z,0
2018-01-20T02:56:49.673Z,0
2018-01-20T02:57:49.998Z,0
2018-01-20T02:58:49.693Z,0
2018-01-20T02:59:49.989Z,0
2018-01-20T03:00:50.065Z,0
2018-01-20T03:01:49.466Z,0
2018-01-20T03:02:49.708Z,0
2018-01-20T03:03:49.797Z,0
2018-01-20T03:04:49.533Z,0
2018-01-20T03:05:49.801Z,0
2018-01-20T03:06:49.760Z,0
2018-01-20T03:07:50.043Z,0
2018-01-20T03:08:50.080Z,0
2018-01-20T03:09:49.264Z,0
2018-01-20T03:10:49.825Z,0
2018-01-20T03:11:49.284Z,0
2018-01-20T03:12:49.276Z,0
2018-01-20T03:13:50.171Z,0
2018-01-20T03:14:49.890Z,0
2018-01-20T03:15:50.061Z,0
2018-01-20T03:16:49.949Z,0
2018-01-20T03:17:49.660Z,0
2018-01-20T03:18:49.361Z,0
2018-01-20T03:19:50.212Z,0
2018-01-20T03:20:50.097Z,0
2018-01-20T03:21:49.963Z,0
2018-01-20T03:22:49.696Z,0
2018-01-20T03:23:50.293Z,0
2018-01-20T03:24:49.694Z,0
2018-01-20T03:25:50.006Z,0
2018-01-20T03:26:49.458Z,0
2018-01-20T03:27:50.007Z,0
2018-01-20T03:28:50.019Z,0
2018-01-20T03:29:49.817Z,0
2018-01-20T03:30:50.081Z,0
2018-01-20T03:31:50.303Z,0
2018-01-20T03:32:50.350Z,0
2018-01-20T03:33:50.083Z,0
2018-01-20T03:34:49.786Z,0
2018-01-20T03:35:50.098Z,0
2018-01-20T03:36:50.387Z,0
2018-01-20T03:37:50.457Z,0
2018-01-20T03:38:50.442Z,0
2018-01-20T03:39:49.870Z,0
2018-01-20T03:40:50.127Z,0
2018-01-20T03:41:50.477Z,0
2018-01-20T03:42:49.633Z,0
2018-01-20T03:43:50.214Z,0
2018-01-20T03:44:50.360Z,0
2018-01-20T03:45:49.921Z,0
2018-01-20T03:46:49.947Z,0
2018-01-20T03:47:50.277Z,0
2018-01-20T03:48:49.954Z,0
2018-01-20T03:49:49.943Z,0
2018-01-20T03:50:50.024Z,0
2018-01-20T03:51:50.416Z,0
2018-01-20T03:52:50.320Z,0
2018-01-20T03:53:50.350Z,0
2018-01-20T03:54:50.301Z,0
2018-01-20T03:55:50.321Z,0
2018-01-20T03:56:50.330Z,0
2018-01-20T03:57:50.310Z,0
2018-01-20T03:58:49.806Z,0
2018-01-20T03:59:50.677Z,0
2018-01-20T04:00:50.517Z,0
2018-01-20T04:01:50.497Z,0
2018-01-20T04:02:50.424Z,0
2018-01-20T04:03:50.464Z,0
2018-01-20T04:04:50.161Z,0
2018-01-20T04:05:50.844Z,0
2018-01-20T04:06:49.839Z,0
2018-01-20T04:07:50.761Z,0
2018-01-20T04:08:50.195Z,0
2018-01-20T04:09:50.788Z,0
2018-01-20T04:10:50.526Z,0
2018-01-20T04:11:50.520Z,0
2018-01-20T04:12:50.787Z,0
2018-01-20T04:13:49.996Z,0
2018-01-20T04:14:50.831Z,0
2018-01-20T04:15:49.957Z,0
2018-01-20T04:16:50.530Z,0
2018-01-20T04:17:50.552Z,0
2018-01-20T04:18:50.461Z,0
2018-01-20T04:19:50.855Z,0
2018-01-20T04:20:50.313Z,0
2018-01-20T04:21:50.339Z,0
2018-01-20T04:22:50.915Z,0
2018-01-20T04:23:50.353Z,0
2018-01-20T04:24:50.335Z,0
2018-01-20T04:25:50.370Z,0
2018-01-20T04:26:50.641Z,0
2018-01-20T04:27:50.992Z,0
2018-01-20T04:28:50.963Z,0
2018-01-20T04:29:50.725Z,0
2018-01-20T04:30:50.660Z,0
2018-01-20T04:31:50.747Z,0
2018-01-20T04:32:50.724Z,0
2018-01-20T04:33:50.694Z,0
2018-01-20T04:34:50.733Z,0
2018-01-20T04:35:50.466Z,0
2018-01-20T04:36:50.754Z,0
2018-01-20T04:37:51.017Z,0
2018-01-20T04:38:50.214Z,0
2018-01-20T04:39:50.811Z,0
2018-01-20T04:40:50.529Z,0
2018-01-20T04:41:50.556Z,0
2018-01-20T04:42:50.872Z,0
2018-01-20T04:43:50.570Z,0
2018-01-20T04:44:51.163Z,0
2018-01-20T04:45:50.912Z,0
2018-01-20T04:46:50.923Z,0
2018-01-20T04:47:50.620Z,0
2018-01-20T04:48:50.892Z,0
2018-01-20T04:49:50.345Z,0
2018-01-20T04:50:50.921Z,0
2018-01-20T04:51:50.906Z,0
2018-01-20T04:52:50.637Z,0
2018-01-20T04:53:51.215Z,0
2018-01-20T04:54:50.947Z,0
2018-01-20T04:55:51.214Z,0
2018-01-20T04:56:50.740Z,0
2018-01-20T04:57:51.326Z,0
2018-01-20T04:58:50.981Z,0
2018-01-20T04:59:51.033Z,0
2018-01-20T05:00:51.494Z,0
2018-01-20T05:01:50.793Z,0
2018-01-20T05:02:51.099Z,0
2018-01-20T05:03:50.767Z,0
2018-01-20T05:04:50.804Z,0
2018-01-20T05:05:51.082Z,0
2018-01-20T05:06:50.576Z,0
2018-01-20T05:07:51.139Z,0
2018-01-20T05:08:51.115Z,0
2018-01-20T05:09:51.118Z,0
2018-01-20T05:10:51.161Z,0
2018-01-20T05:11:51.163Z,0
2018-01-20T05:12:51.156Z,0
2018-01-20T05:13:51.202Z,0
2018-01-20T05:14:50.873Z,0
2018-01-20T05:15:50.880Z,0
2018-01-20T05:16:50.905Z,0
2018-01-20T05:17:51.186Z,0
2018-01-20T05:18:51.234Z,0
2018-01-20T05:19:51.290Z,0
2018-01-20T05:20:51.514Z,0
2018-01-20T05:21:51.320Z,0
2018-01-20T05:22:50.934Z,0
2018-01-20T05:23:51.367Z,0
2018-01-20T05:24:51.300Z,0
2018-01-20T05:25:51.023Z,0
2018-01-20T05:26:51.605Z,0
2018-01-20T05:27:51.677Z,0
2018-01-20T05:28:51.329Z,0
2018-01-20T05:29:51.046Z,0
2018-01-20T05:30:51.228Z,0
2018-01-20T05:31:51.108Z,0
2018-01-20T05:32:51.041Z,0
2018-01-20T05:33:51.366Z,0
2018-01-20T05:34:51.104Z,0
2018-01-20T05:35:51.411Z,0
2018-01-20T05:36:51.117Z,0
2018-01-20T05:37:51.165Z,0
2018-01-20T05:38:51.405Z,0
2018-01-20T05:39:51.179Z,0
2018-01-20T05:40:51.166Z,0
2018-01-20T05:41:51.513Z,0
2018-01-20T05:42:50.889Z,0
2018-01-20T05:43:51.486Z,0
2018-01-20T05:44:51.503Z,0
2018-01-20T05:45:51.533Z,0
2018-01-20T05:46:51.243Z,0
2018-01-20T05:47:51.585Z,0
2018-01-20T05:48:51.304Z,0
2018-01-20T05:49:51.543Z,0
2018-01-20T05:50:51.255Z,0
2018-01-20T05:51:51.329Z,0
2018-01-20T05:52:51.317Z,0
2018-01-20T05:53:51.902Z,0
2018-01-20T05:54:51.310Z,0
2018-01-20T05:55:51.580Z,0
2018-01-20T05:56:51.069Z,0
2018-01-20T05:57:51.378Z,0
2018-01-20T05:58:51.909Z,0
2018-01-20T05:59:51.394Z,0
2018-01-20T06:00:51.373Z,0
2018-01-20T06:01:51.674Z,0
2018-01-20T06:02:51.418Z,0
2018-01-20T06:03:51.419Z,0
2018-01-20T06:04:51.439Z,0
2018-01-20T06:05:51.148Z,0
2018-01-20T06:06:51.723Z,0
2018-01-20T06:07:51.468Z,0
2018-01-20T06:08:51.994Z,0
2018-01-20T06:09:51.502Z,0
2018-01-20T06:10:51.728Z,0
2018-01-20T06:11:51.517Z,0
2018-01-20T06:12:52.074Z,0
2018-01-20T06:13:51.857Z,0
2018-01-20T06:14:51.912Z,0
2018-01-20T06:15:51.576Z,0
2018-01-20T06:16:51.854Z,0
2018-01-20T06:17:51.295Z,0
2018-01-20T06:18:51.864Z,0
2018-01-20T06:19:51.893Z,0
2018-01-20T06:20:51.900Z,0
2018-01-20T06:21:51.932Z,0
2018-01-20T06:22:51.888Z,0
2018-01-20T06:23:52.205Z,0
2018-01-20T06:24:52.218Z,0
2018-01-20T06:25:51.681Z,0
2018-01-20T06:26:51.972Z,0
2018-01-20T06:27:51.406Z,0
2018-01-20T06:28:51.981Z,0
2018-01-20T06:29:52.278Z,0
2018-01-20T06:30:51.691Z,0
2018-01-20T06:31:51.456Z,0
2018-01-20T06:32:52.294Z,0
2018-01-20T06:33:51.724Z,0
2018-01-20T06:34:52.029Z,0
2018-01-20T06:35:52.022Z,0
2018-01-20T06:36:51.766Z,0
2018-01-20T06:37:51.472Z,0
2018-01-20T06:38:51.777Z,0
2018-01-20T06:39:51.770Z,0
2018-01-20T06:40:52.427Z,0
2018-01-20T06:41:52.092Z,0
2018-01-20T06:42:52.574Z,0
2018-01-20T06:43:52.140Z,4
2018-01-20T06:44:52.161Z,4
2018-01-20T06:45:52.148Z,0
2018-01-20T06:46:51.841Z,4
2018-01-20T06:47:52.448Z,4
2018-01-20T06:48:52.456Z,4
2018-01-20T06:49:52.526Z,4
2018-01-20T06:50:52.198Z,4
2018-01-20T06:51:52.252Z,8
2018-01-20T06:52:51.975Z,8
2018-01-20T06:53:52.241Z,8
2018-01-20T06:54:52.208Z,8
2018-01-20T06:55:52.531Z,8
2018-01-20T06:56:52.372Z,8
2018-01-20T06:57:52.584Z,12
2018-01-20T06:58:51.976Z,16
2018-01-20T06:59:52.568Z,16
2018-01-20T07:00:52.313Z,16
2018-01-20T07:01:52.003Z,20
2018-01-20T07:02:52.380Z,20
2018-01-20T07:03:52.438Z,20
2018-01-20T07:04:52.375Z,20
2018-01-20T07:05:52.345Z,24
2018-01-20T07:06:52.115Z,28
2018-01-20T07:07:52.725Z,28
2018-01-20T07:08:51.815Z,32
2018-01-20T07:09:52.450Z,36
2018-01-20T07:10:52.378Z,40
2018-01-20T07:11:52.418Z,40
2018-01-20T07:12:52.788Z,40
2018-01-20T07:13:52.428Z,44
2018-01-20T07:14:52.206Z,52
2018-01-20T07:15:51.888Z,56
2018-01-20T07:16:51.905Z,60
2018-01-20T07:17:52.176Z,64
2018-01-20T07:18:52.170Z,68
2018-01-20T07:19:52.545Z,76
2018-01-20T07:20:52.204Z,80
2018-01-20T07:21:51.991Z,80
2018-01-20T07:22:52.406Z,88
2018-01-20T07:23:52.267Z,92
2018-01-20T07:24:52.287Z,96
2018-01-20T07:25:52.904Z,108
2018-01-20T07:26:52.319Z,116
2018-01-20T07:27:52.417Z,132
2018-01-20T07:28:52.320Z,148
2018-01-20T07:29:53.035Z,172
2018-01-20T07:30:52.948Z,192
2018-01-20T07:31:52.900Z,212
2018-01-20T07:32:53.103Z,224
2018-01-20T07:33:52.361Z,236
2018-01-20T07:34:52.124Z,236
2018-01-20T07:35:52.656Z,236
2018-01-20T07:36:52.714Z,228
2018-01-20T07:37:52.408Z,224
2018-01-20T07:38:52.728Z,220
2018-01-20T07:39:52.717Z,220
2018-01-20T07:40:52.501Z,216
2018-01-20T07:41:52.696Z,216
2018-01-20T07:42:52.771Z,208
2018-01-20T07:43:52.765Z,192
2018-01-20T07:44:52.765Z,188
2018-01-20T07:45:52.805Z,184
2018-01-20T07:46:52.799Z,176
2018-01-20T07:47:53.107Z,172
2018-01-20T07:48:52.816Z,172
2018-01-20T07:49:53.138Z,168
2018-01-20T07:50:52.576Z,164
2018-01-20T07:51:52.592Z,160
2018-01-20T07:52:53.140Z,160
2018-01-20T07:53:52.577Z,168
2018-01-20T07:54:52.916Z,176
2018-01-20T07:55:53.194Z,192
2018-01-20T07:56:52.610Z,216
2018-01-20T07:57:52.699Z,232
2018-01-20T07:58:52.927Z,240
2018-01-20T07:59:52.930Z,228
2018-01-20T08:00:52.400Z,212
2018-01-20T08:01:52.960Z,200
2018-01-20T08:02:52.928Z,184
2018-01-20T08:03:52.980Z,172
2018-01-20T08:04:53.267Z,176
2018-01-20T08:05:52.461Z,180
2018-01-20T08:06:52.741Z,176
2018-01-20T08:07:53.293Z,180
2018-01-20T08:08:53.082Z,188
2018-01-20T08:09:53.033Z,216
2018-01-20T08:10:52.815Z,220
2018-01-20T08:11:52.502Z,236
2018-01-20T08:12:53.381Z,244
2018-01-20T08:13:52.814Z,256
2018-01-20T08:14:53.094Z,276
2018-01-20T08:15:53.380Z,272
2018-01-20T08:16:52.867Z,212
2018-01-20T08:17:52.867Z,172
2018-01-20T08:18:53.147Z,192
2018-01-20T08:19:53.180Z,188
2018-01-20T08:20:53.157Z,136
2018-01-20T08:21:53.162Z,184
2018-01-20T08:22:52.863Z,192
2018-01-20T08:23:53.187Z,208
2018-01-20T08:24:53.202Z,184
2018-01-20T08:25:53.236Z,160
2018-01-20T08:26:52.960Z,156
2018-01-20T08:27:53.228Z,156
2018-01-20T08:28:52.948Z,148
2018-01-20T08:29:52.974Z,128
2018-01-20T08:30:52.738Z,104
2018-01-20T08:31:53.675Z,100
2018-01-20T08:32:53.310Z,112
2018-01-20T08:33:53.012Z,132
2018-01-20T08:34:53.411Z,192
2018-01-20T08:35:53.604Z,216
2018-01-20T08:36:52.751Z,260
2018-01-20T08:37:52.790Z,232
2018-01-20T08:38:53.054Z,220
2018-01-20T08:39:53.393Z,208
2018-01-20T08:40:53.691Z,216
2018-01-20T08:41:53.109Z,180
2018-01-20T08:42:53.443Z,136
2018-01-20T08:43:52.871Z,148
2018-01-20T08:44:53.450Z,136
2018-01-20T08:45:53.701Z,144
2018-01-20T08:46:53.437Z,148
2018-01-20T08:47:53.476Z,168
2018-01-20T08:48:53.177Z,232
2018-01-20T08:49:53.486Z,220
2018-01-20T08:50:53.217Z,204
2018-01-20T08:51:53.195Z,264
2018-01-20T08:52:53.530Z,324
2018-01-20T08:53:53.235Z,368
2018-01-20T08:54:53.561Z,432
2018-01-20T08:55:53.564Z,504
2018-01-20T08:56:53.610Z,444
2018-01-20T08:57:53.281Z,404
2018-01-20T08:58:53.553Z,448
2018-01-20T08:59:53.585Z,564
2018-01-20T09:00:53.351Z,556
2018-01-20T09:01:53.955Z,640
2018-01-20T09:02:53.644Z,648
2018-01-20T09:03:53.662Z,680
2018-01-20T09:04:53.364Z,592
2018-01-20T09:05:53.652Z,564
2018-01-20T09:06:53.393Z,540
2018-01-20T09:07:53.730Z,568
2018-01-20T09:08:53.665Z,644
2018-01-20T09:09:53.664Z,716
2018-01-20T09:10:54.054Z,716
2018-01-20T09:11:53.480Z,724
2018-01-20T09:12:54.060Z,732
2018-01-20T09:13:53.738Z,708
2018-01-20T09:14:53.996Z,692
2018-01-20T09:15:53.183Z,796
2018-01-20T09:16:53.512Z,780
2018-01-20T09:17:53.769Z,740
2018-01-20T09:18:53.868Z,728
2018-01-20T09:19:53.764Z,708
2018-01-20T09:20:54.130Z,780
2018-01-20T09:21:53.556Z,824
2018-01-20T09:22:53.854Z,868
2018-01-20T09:23:53.905Z,880
2018-01-20T09:24:53.547Z,912
2018-01-20T09:25:53.868Z,904
2018-01-20T09:26:53.319Z,884
2018-01-20T09:27:53.581Z,848
2018-01-20T09:28:53.862Z,808
2018-01-20T09:29:53.937Z,828
2018-01-20T09:30:53.657Z,812
2018-01-20T09:31:54.258Z,732
2018-01-20T09:32:53.713Z,684
2018-01-20T09:33:54.004Z,656
2018-01-20T09:34:54.306Z,632
2018-01-20T09:35:53.682Z,624
2018-01-20T09:36:53.712Z,600
2018-01-20T09:37:53.713Z,652
2018-01-20T09:38:53.703Z,716
2018-01-20T09:39:53.755Z,740
2018-01-20T09:40:54.287Z,680
2018-01-20T09:41:54.361Z,652
2018-01-20T09:42:53.524Z,680
2018-01-20T09:43:53.807Z,772
2018-01-20T09:44:54.398Z,928
2018-01-20T09:45:54.086Z,1060
2018-01-20T09:46:53.868Z,984
2018-01-20T09:47:54.120Z,796
2018-01-20T09:48:54.131Z,640
2018-01-20T09:49:54.153Z,520
2018-01-20T09:50:54.239Z,424
2018-01-20T09:51:53.847Z,392
2018-01-20T09:52:54.172Z,376
2018-01-20T09:53:54.197Z,364
2018-01-20T09:54:53.898Z,352
2018-01-20T09:55:53.938Z,356
2018-01-20T09:56:53.974Z,400
2018-01-20T09:57:53.976Z,452
2018-01-20T09:58:54.231Z,472
2018-01-20T09:59:54.537Z,464
2018-01-20T10:00:53.944Z,448
2018-01-20T10:01:53.981Z,448
2018-01-20T10:02:54.292Z,460
2018-01-20T10:03:54.291Z,444
2018-01-20T10:04:54.006Z,408
2018-01-20T10:05:53.773Z,408
2018-01-20T10:06:54.314Z,396
2018-01-20T10:07:54.354Z,400
2018-01-20T10:08:54.632Z,400
2018-01-20T10:09:54.619Z,404
2018-01-20T10:10:54.395Z,412
2018-01-20T10:11:54.414Z,456
2018-01-20T10:12:54.452Z,520
2018-01-20T10:13:54.131Z,596
2018-01-20T10:14:54.430Z,624
2018-01-20T10:15:53.888Z,644
2018-01-20T10:16:53.891Z,600
2018-01-20T10:17:54.218Z,576
2018-01-20T10:18:54.528Z,560
2018-01-20T10:19:54.764Z,552
2018-01-20T10:20:53.970Z,548
2018-01-20T10:21:54.225Z,536
2018-01-20T10:22:53.959Z,528
2018-01-20T10:23:54.245Z,520
2018-01-20T10:24:54.499Z,528
2018-01-20T10:25:54.228Z,524
2018-01-20T10:26:54.837Z,500
2018-01-20T10:27:54.587Z,480
2018-01-20T10:28:53.985Z,508
2018-01-20T10:29:54.328Z,548
2018-01-20T10:30:54.344Z,600
2018-01-20T10:31:54.934Z,660
2018-01-20T10:32:54.319Z,680
2018-01-20T10:33:55.045Z,684
2018-01-20T10:34:54.716Z,716
2018-01-20T10:35:54.949Z,732
2018-01-20T10:36:54.674Z,796
2018-01-20T10:37:55.003Z,940
2018-01-20T10:38:54.748Z,1076
2018-01-20T10:39:54.738Z,1140
2018-01-20T10:40:54.718Z,1144
2018-01-20T10:41:54.479Z,1136
2018-01-20T10:42:54.485Z,1116
2018-01-20T10:43:54.809Z,1080
2018-01-20T10:44:55.071Z,1036
2018-01-20T10:45:54.802Z,1016
2018-01-20T10:46:54.538Z,1008
2018-01-20T10:47:54.308Z,948
2018-01-20T10:48:54.814Z,816
2018-01-20T10:49:54.690Z,688
2018-01-20T10:50:54.570Z,656
2018-01-20T10:51:55.208Z,652
2018-01-20T10:52:54.910Z,608
2018-01-20T10:53:54.899Z,516
2018-01-20T10:54:54.928Z,512
2018-01-20T10:55:54.607Z,504
2018-01-20T10:56:54.636Z,484
2018-01-20T10:57:54.642Z,464
2018-01-20T10:58:54.688Z,384
2018-01-20T10:59:54.986Z,344
2018-01-20T11:00:54.698Z,368
2018-01-20T11:01:54.994Z,440
2018-01-20T11:02:54.939Z,388
2018-01-20T11:03:54.750Z,408
2018-01-20T11:04:55.016Z,432
2018-01-20T11:05:55.020Z,412
2018-01-20T11:06:55.370Z,504
2018-01-20T11:07:55.084Z,608
2018-01-20T11:08:54.795Z,848
2018-01-20T11:09:55.345Z,1292
2018-01-20T11:10:55.035Z,1436
2018-01-20T11:11:54.805Z,1312
2018-01-20T11:12:55.106Z,1084
2018-01-20T11:13:55.138Z,900
2018-01-20T11:14:55.176Z,792
2018-01-20T11:15:55.450Z,892
2018-01-20T11:16:54.866Z,912
2018-01-20T11:17:55.467Z,848
2018-01-20T11:18:55.189Z,832
2018-01-20T11:19:55.191Z,920
2018-01-20T11:20:55.220Z,996
2018-01-20T11:21:55.508Z,1128
2018-01-20T11:22:55.499Z,1280
2018-01-20T11:23:55.260Z,1432
2018-01-20T11:24:55.452Z,1572
2018-01-20T11:25:55.609Z,1864
2018-01-20T11:26:55.325Z,1380
2018-01-20T11:27:54.985Z,1072
2018-01-20T11:28:55.289Z,912
2018-01-20T11:29:55.368Z,1060
2018-01-20T11:30:55.014Z,904
2018-01-20T11:31:55.334Z,844
2018-01-20T11:32:55.370Z,716
2018-01-20T11:33:55.065Z,816
2018-01-20T11:34:55.361Z,936
2018-01-20T11:35:55.427Z,916
2018-01-20T11:36:55.123Z,768
2018-01-20T11:37:55.073Z,772
2018-01-20T11:38:54.825Z,776
2018-01-20T11:39:55.599Z,844
2018-01-20T11:40:55.466Z,880
2018-01-20T11:41:55.152Z,796
2018-01-20T11:42:55.710Z,912
2018-01-20T11:43:54.891Z,852
2018-01-20T11:44:54.985Z,968
2018-01-20T11:45:55.782Z,916
2018-01-20T11:46:55.525Z,880
2018-01-20T11:47:55.231Z,724
2018-01-20T11:48:55.549Z,928
2018-01-20T11:49:55.859Z,1088
2018-01-20T11:50:54.997Z,928
2018-01-20T11:51:55.526Z,812
2018-01-20T11:52:55.315Z,816
2018-01-20T11:53:55.551Z,756
2018-01-20T11:54:55.677Z,780
2018-01-20T11:55:55.300Z,704
2018-01-20T11:56:55.905Z,780
2018-01-20T11:57:55.694Z,888
2018-01-20T11:58:55.408Z,964
2018-01-20T11:59:55.708Z,1100
2018-01-20T12:00:55.945Z,656
2018-01-20T12:01:55.151Z,536
2018-01-20T12:02:55.777Z,388
2018-01-20T12:03:55.748Z,408
2018-01-20T12:04:55.816Z,444
2018-01-20T12:05:55.760Z,404
2018-01-20T12:06:55.773Z,496
2018-01-20T12:07:55.787Z,524
2018-01-20T12:08:55.771Z,552
2018-01-20T12:09:56.140Z,700
2018-01-20T12:10:55.572Z,660
2018-01-20T12:11:55.903Z,604
2018-01-20T12:12:55.828Z,616
2018-01-20T12:13:55.543Z,600
2018-01-20T12:14:55.274Z,544
2018-01-20T12:15:55.591Z,528
2018-01-20T12:16:55.900Z,504
2018-01-20T12:17:55.626Z,496
2018-01-20T12:18:56.178Z,504
2018-01-20T12:19:55.686Z,524
2018-01-20T12:20:56.219Z,500
2018-01-20T12:21:56.214Z,476
2018-01-20T12:22:55.937Z,504
2018-01-20T12:23:56.357Z,608
2018-01-20T12:24:56.284Z,684
2018-01-20T12:25:56.290Z,592
2018-01-20T12:26:55.986Z,848
2018-01-20T12:27:55.717Z,960
2018-01-20T12:28:56.078Z,976
2018-01-20T12:29:56.107Z,900
2018-01-20T12:30:55.820Z,1216
2018-01-20T12:31:56.004Z,948
2018-01-20T12:32:56.079Z,716
2018-01-20T12:33:55.526Z,808
2018-01-20T12:34:55.576Z,900
2018-01-20T12:35:55.816Z,724
2018-01-20T12:36:55.877Z,808
2018-01-20T12:37:56.267Z,504
2018-01-20T12:38:56.484Z,328
2018-01-20T12:39:55.917Z,308
2018-01-20T12:40:56.175Z,312
2018-01-20T12:41:56.203Z,340
2018-01-20T12:42:56.541Z,340
2018-01-20T12:43:56.201Z,348
2018-01-20T12:44:55.950Z,308
2018-01-20T12:45:55.970Z,300
2018-01-20T12:46:56.492Z,304
2018-01-20T12:47:56.253Z,316
2018-01-20T12:48:56.271Z,332
2018-01-20T12:49:56.297Z,360
2018-01-20T12:50:56.022Z,404
2018-01-20T12:51:56.310Z,444
2018-01-20T12:52:56.368Z,480
2018-01-20T12:53:56.399Z,496
2018-01-20T12:54:56.830Z,512
2018-01-20T12:55:56.073Z,556
2018-01-20T12:56:56.118Z,592
2018-01-20T12:57:56.063Z,600
2018-01-20T12:58:56.111Z,540
2018-01-20T12:59:56.763Z,472
2018-01-20T13:00:55.873Z,436
2018-01-20T13:01:56.755Z,412
2018-01-20T13:02:56.498Z,400
2018-01-20T13:03:56.210Z,388
2018-01-20T13:04:55.904Z,376
2018-01-20T13:05:56.227Z,384
2018-01-20T13:06:56.465Z,388
2018-01-20T13:07:56.748Z,396
2018-01-20T13:08:56.255Z,416
2018-01-20T13:09:56.844Z,456
2018-01-20T13:10:56.612Z,500
2018-01-20T13:11:56.316Z,544
2018-01-20T13:12:56.596Z,580
2018-01-20T13:13:56.610Z,604
2018-01-20T13:14:56.345Z,636
2018-01-20T13:15:56.651Z,668
2018-01-20T13:16:56.877Z,680
2018-01-20T13:17:56.979Z,688
2018-01-20T13:18:56.665Z,684
2018-01-20T13:19:56.970Z,640
2018-01-20T13:20:56.772Z,616
2018-01-20T13:21:56.117Z,608
2018-01-20T13:22:57.045Z,596
2018-01-20T13:23:56.165Z,504
2018-01-20T13:24:56.426Z,440
2018-01-20T13:25:57.024Z,368
2018-01-20T13:26:56.449Z,328
2018-01-20T13:27:56.464Z,308
2018-01-20T13:28:57.095Z,296
2018-01-20T13:29:56.798Z,292
2018-01-20T13:30:56.943Z,288
2018-01-20T13:31:56.842Z,288
2018-01-20T13:32:56.258Z,300
2018-01-20T13:33:56.896Z,308
2018-01-20T13:34:56.854Z,292
2018-01-20T13:35:56.579Z,276
2018-01-20T13:36:57.191Z,268
2018-01-20T13:37:56.613Z,260
2018-01-20T13:38:57.146Z,256
2018-01-20T13:39:56.918Z,260
2018-01-20T13:40:57.258Z,256
2018-01-20T13:41:56.640Z,260
2018-01-20T13:42:57.008Z,264
2018-01-20T13:43:56.921Z,272
2018-01-20T13:44:56.974Z,276
2018-01-20T13:45:57.044Z,284
2018-01-20T13:46:56.695Z,288
2018-01-20T13:47:57.034Z,292
2018-01-20T13:48:57.345Z,304
2018-01-20T13:49:57.037Z,312
2018-01-20T13:50:57.055Z,304
2018-01-20T13:51:57.313Z,324
2018-01-20T13:52:57.059Z,364
2018-01-20T13:53:56.562Z,404
2018-01-20T13:54:57.149Z,416
2018-01-20T13:55:57.492Z,404
2018-01-20T13:56:57.419Z,384
2018-01-20T13:57:56.847Z,376
2018-01-20T13:58:57.188Z,404
2018-01-20T13:59:57.171Z,440
2018-01-20T14:00:56.929Z,460
2018-01-20T14:01:56.614Z,472
2018-01-20T14:02:56.930Z,484
2018-01-20T14:03:57.541Z,492
2018-01-20T14:04:57.591Z,504
2018-01-20T14:05:56.960Z,520
2018-01-20T14:06:56.986Z,520
2018-01-20T14:07:57.008Z,500
2018-01-20T14:08:57.030Z,492
2018-01-20T14:09:57.334Z,492
2018-01-20T14:10:56.812Z,488
2018-01-20T14:11:57.348Z,488
2018-01-20T14:12:57.083Z,484
2018-01-20T14:13:57.055Z,480
2018-01-20T14:14:57.096Z,484